sensor_id;sensor_type;location;lat;lon;timestamp;noise_LAeq;noise_LA_min;noise_LA_max;noise_LA01;noise_LA95
47923;Laerm;33688;44.354;9.228;2024-02-16T00:02:31;35.80;35.05;38.00;;
47923;Laerm;33688;44.354;9.228;2024-02-16T00:04:58;35.80;35.17;38.92;;
47923;Laerm;33688;44.354;9.228;2024-02-16T00:07:47;35.95;34.92;42.09;;
47923;Laerm;33688;44.354;9.228;2024-02-16T00:10:13;35.82;35.21;44.19;;
47923;Laerm;33688;44.354;9.228;2024-02-16T00:12:39;35.78;35.09;36.61;;
47923;Laerm;33688;44.354;9.228;2024-02-16T00:15:06;35.81;35.12;37.18;;
47923;Laerm;33688;44.354;9.228;2024-02-16T00:17:35;35.79;35.14;36.59;;
47923;Laerm;33688;44.354;9.228;2024-02-16T00:20:03;36.04;34.97;46.15;;
47923;Laerm;33688;44.354;9.228;2024-02-16T00:22:30;35.80;35.04;36.58;;
47923;Laerm;33688;44.354;9.228;2024-02-16T00:24:56;35.80;35.00;36.61;;
47923;Laerm;33688;44.354;9.228;2024-02-16T00:27:22;35.78;34.87;36.61;;
47923;Laerm;33688;44.354;9.228;2024-02-16T00:29:48;35.80;35.09;36.49;;
47923;Laerm;33688;44.354;9.228;2024-02-16T00:32:15;35.79;35.02;36.72;;
47923;Laerm;33688;44.354;9.228;2024-02-16T00:34:41;35.82;35.17;41.87;;
47923;Laerm;33688;44.354;9.228;2024-02-16T00:37:08;35.79;35.08;36.59;;
47923;Laerm;33688;44.354;9.228;2024-02-16T00:39:36;35.81;35.14;41.46;;
47923;Laerm;33688;44.354;9.228;2024-02-16T00:42:03;35.78;35.02;36.72;;
47923;Laerm;33688;44.354;9.228;2024-02-16T00:44:29;35.79;35.03;36.60;;
47923;Laerm;33688;44.354;9.228;2024-02-16T00:46:55;35.79;35.15;36.59;;
47923;Laerm;33688;44.354;9.228;2024-02-16T00:49:21;35.80;35.14;36.57;;
47923;Laerm;33688;44.354;9.228;2024-02-16T00:51:48;35.78;35.10;36.47;;
47923;Laerm;33688;44.354;9.228;2024-02-16T00:54:17;35.79;35.21;36.52;;
47923;Laerm;33688;44.354;9.228;2024-02-16T00:56:43;35.80;35.16;37.33;;
47923;Laerm;33688;44.354;9.228;2024-02-16T00:59:10;35.80;35.14;42.58;;
47923;Laerm;33688;44.354;9.228;2024-02-16T01:01:37;35.78;35.09;36.68;;
47923;Laerm;33688;44.354;9.228;2024-02-16T01:04:04;35.79;34.97;36.47;;
47923;Laerm;33688;44.354;9.228;2024-02-16T01:06:33;35.78;35.06;38.79;;
47923;Laerm;33688;44.354;9.228;2024-02-16T01:08:59;35.78;35.12;36.52;;
47923;Laerm;33688;44.354;9.228;2024-02-16T01:11:24;35.78;35.11;36.57;;
47923;Laerm;33688;44.354;9.228;2024-02-16T01:13:52;35.78;35.06;36.40;;
47923;Laerm;33688;44.354;9.228;2024-02-16T01:16:18;35.80;35.04;38.33;;
47923;Laerm;33688;44.354;9.228;2024-02-16T01:18:45;35.79;35.09;36.79;;
47923;Laerm;33688;44.354;9.228;2024-02-16T01:21:11;35.77;35.11;36.45;;
47923;Laerm;33688;44.354;9.228;2024-02-16T01:23:38;35.79;34.95;36.70;;
47923;Laerm;33688;44.354;9.228;2024-02-16T01:26:05;35.78;34.97;37.53;;
47923;Laerm;33688;44.354;9.228;2024-02-16T01:28:32;35.80;35.11;37.95;;
47923;Laerm;33688;44.354;9.228;2024-02-16T01:30:58;35.80;35.05;36.67;;
47923;Laerm;33688;44.354;9.228;2024-02-16T01:33:24;35.80;35.16;39.67;;
47923;Laerm;33688;44.354;9.228;2024-02-16T01:35:52;35.80;35.11;37.50;;
47923;Laerm;33688;44.354;9.228;2024-02-16T01:38:18;35.79;35.06;36.53;;
47923;Laerm;33688;44.354;9.228;2024-02-16T01:40:44;35.78;35.07;36.55;;
47923;Laerm;33688;44.354;9.228;2024-02-16T01:43:10;35.79;35.05;36.58;;
47923;Laerm;33688;44.354;9.228;2024-02-16T01:45:36;35.79;35.10;38.03;;
47923;Laerm;33688;44.354;9.228;2024-02-16T01:48:01;35.79;35.14;36.65;;
47923;Laerm;33688;44.354;9.228;2024-02-16T01:50:28;35.80;35.13;36.74;;
47923;Laerm;33688;44.354;9.228;2024-02-16T01:52:55;35.79;35.07;36.56;;
47923;Laerm;33688;44.354;9.228;2024-02-16T01:55:21;35.78;34.97;36.61;;
47923;Laerm;33688;44.354;9.228;2024-02-16T01:57:48;35.78;35.03;36.63;;
47923;Laerm;33688;44.354;9.228;2024-02-16T02:00:16;35.78;35.08;36.82;;
47923;Laerm;33688;44.354;9.228;2024-02-16T02:02:45;35.79;34.85;38.99;;
47923;Laerm;33688;44.354;9.228;2024-02-16T02:05:12;35.79;35.07;36.64;;
47923;Laerm;33688;44.354;9.228;2024-02-16T02:07:42;35.83;35.13;46.65;;
47923;Laerm;33688;44.354;9.228;2024-02-16T02:10:09;35.77;35.11;36.58;;
47923;Laerm;33688;44.354;9.228;2024-02-16T02:12:35;35.78;35.13;36.57;;
47923;Laerm;33688;44.354;9.228;2024-02-16T02:15:04;35.90;35.10;49.93;;
47923;Laerm;33688;44.354;9.228;2024-02-16T02:17:30;35.79;35.13;36.59;;
47923;Laerm;33688;44.354;9.228;2024-02-16T02:19:56;35.78;35.10;36.60;;
47923;Laerm;33688;44.354;9.228;2024-02-16T02:22:24;35.78;35.19;36.56;;
47923;Laerm;33688;44.354;9.228;2024-02-16T02:24:53;35.78;35.18;36.46;;
47923;Laerm;33688;44.354;9.228;2024-02-16T02:27:23;35.79;35.17;37.16;;
47923;Laerm;33688;44.354;9.228;2024-02-16T02:29:50;35.79;35.00;36.70;;
47923;Laerm;33688;44.354;9.228;2024-02-16T02:32:18;35.80;35.17;36.53;;
47923;Laerm;33688;44.354;9.228;2024-02-16T02:34:44;35.79;35.08;39.16;;
47923;Laerm;33688;44.354;9.228;2024-02-16T02:37:10;35.80;35.05;36.49;;
47923;Laerm;33688;44.354;9.228;2024-02-16T02:39:37;35.81;35.03;36.70;;
47923;Laerm;33688;44.354;9.228;2024-02-16T02:42:03;35.82;35.06;36.48;;
47923;Laerm;33688;44.354;9.228;2024-02-16T02:44:28;35.83;35.12;44.24;;
47923;Laerm;33688;44.354;9.228;2024-02-16T02:46:59;35.80;35.00;36.58;;
47923;Laerm;33688;44.354;9.228;2024-02-16T02:49:24;35.80;35.19;36.62;;
47923;Laerm;33688;44.354;9.228;2024-02-16T02:51:50;35.80;35.11;36.52;;
47923;Laerm;33688;44.354;9.228;2024-02-16T02:54:17;35.80;35.14;36.49;;
47923;Laerm;33688;44.354;9.228;2024-02-16T02:56:43;35.81;35.08;36.66;;
47923;Laerm;33688;44.354;9.228;2024-02-16T02:59:09;35.80;35.02;37.36;;
47923;Laerm;33688;44.354;9.228;2024-02-16T03:01:36;35.81;35.19;36.58;;
47923;Laerm;33688;44.354;9.228;2024-02-16T03:04:04;35.81;34.88;36.52;;
47923;Laerm;33688;44.354;9.228;2024-02-16T03:06:32;35.79;35.12;36.69;;
47923;Laerm;33688;44.354;9.228;2024-02-16T03:08:59;35.79;35.05;38.45;;
47923;Laerm;33688;44.354;9.228;2024-02-16T03:11:26;35.80;35.00;37.67;;
47923;Laerm;33688;44.354;9.228;2024-02-16T03:13:52;35.79;34.98;39.00;;
47923;Laerm;33688;44.354;9.228;2024-02-16T03:16:18;35.79;35.10;36.67;;
47923;Laerm;33688;44.354;9.228;2024-02-16T03:18:46;35.80;35.18;36.71;;
47923;Laerm;33688;44.354;9.228;2024-02-16T03:21:31;35.79;35.08;36.73;;
47923;Laerm;33688;44.354;9.228;2024-02-16T03:23:58;35.77;34.96;36.51;;
47923;Laerm;33688;44.354;9.228;2024-02-16T03:26:43;35.78;35.05;36.72;;
47923;Laerm;33688;44.354;9.228;2024-02-16T03:29:10;35.78;34.95;36.47;;
47923;Laerm;33688;44.354;9.228;2024-02-16T03:31:37;35.78;34.96;36.53;;
47923;Laerm;33688;44.354;9.228;2024-02-16T03:34:03;35.77;35.01;36.42;;
47923;Laerm;33688;44.354;9.228;2024-02-16T03:36:29;35.76;34.95;36.44;;
47923;Laerm;33688;44.354;9.228;2024-02-16T03:38:56;35.77;35.10;36.65;;
47923;Laerm;33688;44.354;9.228;2024-02-16T03:41:22;35.78;35.04;36.43;;
47923;Laerm;33688;44.354;9.228;2024-02-16T03:43:50;35.77;34.90;36.52;;
47923;Laerm;33688;44.354;9.228;2024-02-16T03:46:19;35.78;35.16;36.46;;
47923;Laerm;33688;44.354;9.228;2024-02-16T03:48:47;35.78;35.07;36.60;;
47923;Laerm;33688;44.354;9.228;2024-02-16T03:51:14;35.77;35.06;36.56;;
47923;Laerm;33688;44.354;9.228;2024-02-16T03:53:39;35.78;35.10;36.53;;
47923;Laerm;33688;44.354;9.228;2024-02-16T03:56:07;35.77;35.11;36.49;;
47923;Laerm;33688;44.354;9.228;2024-02-16T03:58:33;35.78;34.98;38.75;;
47923;Laerm;33688;44.354;9.228;2024-02-16T04:00:59;35.78;35.19;36.46;;
47923;Laerm;33688;44.354;9.228;2024-02-16T04:03:27;35.78;35.09;36.45;;
47923;Laerm;33688;44.354;9.228;2024-02-16T04:05:55;35.85;34.94;38.38;;
47923;Laerm;33688;44.354;9.228;2024-02-16T04:08:22;35.78;35.10;36.64;;
47923;Laerm;33688;44.354;9.228;2024-02-16T04:10:47;35.79;35.04;41.85;;
47923;Laerm;33688;44.354;9.228;2024-02-16T04:13:13;35.76;35.18;36.60;;
47923;Laerm;33688;44.354;9.228;2024-02-16T04:15:39;35.78;35.14;36.64;;
47923;Laerm;33688;44.354;9.228;2024-02-16T04:18:06;35.80;35.03;38.69;;
47923;Laerm;33688;44.354;9.228;2024-02-16T04:20:32;35.78;35.04;36.69;;
47923;Laerm;33688;44.354;9.228;2024-02-16T04:23:00;35.94;34.92;43.50;;
47923;Laerm;33688;44.354;9.228;2024-02-16T04:25:27;35.78;35.12;36.53;;
47923;Laerm;33688;44.354;9.228;2024-02-16T04:27:55;35.78;35.14;37.03;;
47923;Laerm;33688;44.354;9.228;2024-02-16T04:30:22;35.79;35.03;36.50;;
47923;Laerm;33688;44.354;9.228;2024-02-16T04:32:50;35.79;35.10;36.52;;
47923;Laerm;33688;44.354;9.228;2024-02-16T04:35:16;35.80;35.06;36.54;;
47923;Laerm;33688;44.354;9.228;2024-02-16T04:37:42;35.78;35.04;36.60;;
47923;Laerm;33688;44.354;9.228;2024-02-16T04:40:09;35.78;35.10;36.65;;
47923;Laerm;33688;44.354;9.228;2024-02-16T04:42:38;35.79;34.55;36.60;;
47923;Laerm;33688;44.354;9.228;2024-02-16T04:45:07;35.78;35.09;36.52;;
47923;Laerm;33688;44.354;9.228;2024-02-16T04:47:34;35.79;34.96;36.50;;
47923;Laerm;33688;44.354;9.228;2024-02-16T04:50:00;35.81;35.06;36.59;;
47923;Laerm;33688;44.354;9.228;2024-02-16T04:52:26;35.93;35.16;49.96;;
47923;Laerm;33688;44.354;9.228;2024-02-16T04:54:52;35.79;34.92;36.55;;
47923;Laerm;33688;44.354;9.228;2024-02-16T04:57:18;35.79;35.03;36.95;;
47923;Laerm;33688;44.354;9.228;2024-02-16T04:59:44;35.94;34.94;38.66;;
47923;Laerm;33688;44.354;9.228;2024-02-16T05:02:10;36.05;35.08;47.88;;
47923;Laerm;33688;44.354;9.228;2024-02-16T05:04:35;35.83;35.07;37.09;;
47923;Laerm;33688;44.354;9.228;2024-02-16T05:07:04;35.82;34.87;45.89;;
47923;Laerm;33688;44.354;9.228;2024-02-16T05:09:32;35.77;35.02;37.44;;
47923;Laerm;33688;44.354;9.228;2024-02-16T05:11:58;35.77;35.07;38.18;;
47923;Laerm;33688;44.354;9.228;2024-02-16T05:14:24;35.79;35.12;38.73;;
47923;Laerm;33688;44.354;9.228;2024-02-16T05:16:51;35.88;35.07;39.67;;
47923;Laerm;33688;44.354;9.228;2024-02-16T05:19:16;35.77;35.07;36.67;;
47923;Laerm;33688;44.354;9.228;2024-02-16T05:21:43;35.75;34.88;37.68;;
47923;Laerm;33688;44.354;9.228;2024-02-16T05:24:11;35.76;35.10;36.48;;
47923;Laerm;33688;44.354;9.228;2024-02-16T05:26:37;35.75;35.05;36.82;;
47923;Laerm;33688;44.354;9.228;2024-02-16T05:29:04;35.76;35.07;36.55;;
47923;Laerm;33688;44.354;9.228;2024-02-16T05:31:30;35.83;35.08;39.30;;
47923;Laerm;33688;44.354;9.228;2024-02-16T05:33:56;35.77;35.02;36.94;;
47923;Laerm;33688;44.354;9.228;2024-02-16T05:36:23;35.77;34.92;37.81;;
47923;Laerm;33688;44.354;9.228;2024-02-16T05:38:56;35.77;35.17;36.71;;
47923;Laerm;33688;44.354;9.228;2024-02-16T05:41:49;35.80;34.88;36.78;;
47923;Laerm;33688;44.354;9.228;2024-02-16T05:44:14;35.78;35.08;36.55;;
47923;Laerm;33688;44.354;9.228;2024-02-16T05:46:40;35.87;35.09;39.10;;
47923;Laerm;33688;44.354;9.228;2024-02-16T05:49:06;35.75;34.87;36.59;;
47923;Laerm;33688;44.354;9.228;2024-02-16T05:51:35;35.75;35.02;38.78;;
47923;Laerm;33688;44.354;9.228;2024-02-16T05:54:03;35.76;35.07;36.62;;
47923;Laerm;33688;44.354;9.228;2024-02-16T05:56:31;35.80;35.08;42.14;;
47923;Laerm;33688;44.354;9.228;2024-02-16T05:59:00;35.76;35.10;36.60;;
47923;Laerm;33688;44.354;9.228;2024-02-16T06:01:26;35.84;34.97;38.52;;
47923;Laerm;33688;44.354;9.228;2024-02-16T06:03:53;35.82;35.18;46.21;;
47923;Laerm;33688;44.354;9.228;2024-02-16T06:06:20;35.78;35.00;36.65;;
47923;Laerm;33688;44.354;9.228;2024-02-16T06:08:47;35.77;35.10;39.37;;
47923;Laerm;33688;44.354;9.228;2024-02-16T06:11:13;35.78;35.17;36.58;;
47923;Laerm;33688;44.354;9.228;2024-02-16T06:13:41;35.78;35.02;37.25;;
47923;Laerm;33688;44.354;9.228;2024-02-16T06:16:09;35.88;34.98;39.32;;
47923;Laerm;33688;44.354;9.228;2024-02-16T06:18:36;35.79;34.86;41.25;;
47923;Laerm;33688;44.354;9.228;2024-02-16T06:21:03;35.78;35.10;36.75;;
47923;Laerm;33688;44.354;9.228;2024-02-16T06:23:29;35.78;35.05;36.62;;
47923;Laerm;33688;44.354;9.228;2024-02-16T06:25:57;35.82;35.02;36.97;;
47923;Laerm;33688;44.354;9.228;2024-02-16T06:28:23;35.80;34.80;36.98;;
47923;Laerm;33688;44.354;9.228;2024-02-16T06:30:49;35.89;35.21;40.89;;
47923;Laerm;33688;44.354;9.228;2024-02-16T06:33:15;35.80;35.10;36.60;;
47923;Laerm;33688;44.354;9.228;2024-02-16T06:35:41;36.50;35.08;46.53;;
47923;Laerm;33688;44.354;9.228;2024-02-16T06:38:08;37.14;35.09;46.47;;
47923;Laerm;33688;44.354;9.228;2024-02-16T06:40:36;36.12;35.13;42.90;;
47923;Laerm;33688;44.354;9.228;2024-02-16T06:43:02;36.25;35.20;39.42;;
47923;Laerm;33688;44.354;9.228;2024-02-16T06:45:31;35.84;35.13;39.56;;
47923;Laerm;33688;44.354;9.228;2024-02-16T06:47:57;35.94;35.14;39.28;;
47923;Laerm;33688;44.354;9.228;2024-02-16T06:50:24;35.82;35.18;36.68;;
47923;Laerm;33688;44.354;9.228;2024-02-16T06:52:50;35.84;35.12;36.57;;
47923;Laerm;33688;44.354;9.228;2024-02-16T06:55:16;37.35;35.11;46.94;;
47923;Laerm;33688;44.354;9.228;2024-02-16T06:57:44;35.85;35.16;39.77;;
47923;Laerm;33688;44.354;9.228;2024-02-16T07:00:11;35.93;35.06;42.92;;
47923;Laerm;33688;44.354;9.228;2024-02-16T07:02:37;36.04;35.08;39.45;;
47923;Laerm;33688;44.354;9.228;2024-02-16T07:05:04;35.85;35.14;44.71;;
47923;Laerm;33688;44.354;9.228;2024-02-16T07:07:31;36.74;35.06;58.91;;
47923;Laerm;33688;44.354;9.228;2024-02-16T07:10:02;35.91;34.78;43.75;;
47923;Laerm;33688;44.354;9.228;2024-02-16T07:12:28;36.12;35.03;45.84;;
47923;Laerm;33688;44.354;9.228;2024-02-16T07:14:54;36.93;35.07;54.10;;
47923;Laerm;33688;44.354;9.228;2024-02-16T07:17:20;36.14;35.12;46.03;;
47923;Laerm;33688;44.354;9.228;2024-02-16T07:19:46;36.77;35.07;56.10;;
47923;Laerm;33688;44.354;9.228;2024-02-16T07:22:11;35.99;35.04;44.50;;
47923;Laerm;33688;44.354;9.228;2024-02-16T07:24:38;35.95;35.20;43.65;;
47923;Laerm;33688;44.354;9.228;2024-02-16T07:27:05;35.96;35.15;45.44;;
47923;Laerm;33688;44.354;9.228;2024-02-16T07:29:30;35.91;34.80;40.68;;
47923;Laerm;33688;44.354;9.228;2024-02-16T07:31:58;39.86;35.10;63.14;;
47923;Laerm;33688;44.354;9.228;2024-02-16T07:34:24;42.09;35.15;59.70;;
47923;Laerm;33688;44.354;9.228;2024-02-16T07:36:50;38.88;35.23;47.67;;
47923;Laerm;33688;44.354;9.228;2024-02-16T07:39:17;51.61;35.25;79.27;;
47923;Laerm;33688;44.354;9.228;2024-02-16T07:41:43;49.46;39.84;70.76;;
47923;Laerm;33688;44.354;9.228;2024-02-16T07:44:09;50.77;40.57;75.46;;
47923;Laerm;33688;44.354;9.228;2024-02-16T07:46:40;47.08;40.31;68.26;;
47923;Laerm;33688;44.354;9.228;2024-02-16T07:49:10;43.48;40.04;60.94;;
47923;Laerm;33688;44.354;9.228;2024-02-16T07:51:37;44.59;39.36;66.39;;
47923;Laerm;33688;44.354;9.228;2024-02-16T07:54:04;41.49;39.80;51.28;;
47923;Laerm;33688;44.354;9.228;2024-02-16T07:56:31;49.64;39.39;76.76;;
47923;Laerm;33688;44.354;9.228;2024-02-16T07:58:58;48.53;39.29;65.57;;
47923;Laerm;33688;44.354;9.228;2024-02-16T08:01:24;48.28;39.53;71.84;;
47923;Laerm;33688;44.354;9.228;2024-02-16T08:03:51;49.19;39.64;66.47;;
47923;Laerm;33688;44.354;9.228;2024-02-16T08:06:17;48.05;39.32;68.08;;
47923;Laerm;33688;44.354;9.228;2024-02-16T08:08:48;48.38;39.39;71.38;;
47923;Laerm;33688;44.354;9.228;2024-02-16T08:11:15;49.49;39.59;71.10;;
47923;Laerm;33688;44.354;9.228;2024-02-16T08:13:41;58.73;39.62;76.52;;
47923;Laerm;33688;44.354;9.228;2024-02-16T08:16:07;66.46;39.91;85.45;;
47923;Laerm;33688;44.354;9.228;2024-02-16T08:18:33;57.53;39.73;75.00;;
47923;Laerm;33688;44.354;9.228;2024-02-16T08:21:01;57.08;39.67;83.33;;
47923;Laerm;33688;44.354;9.228;2024-02-16T08:23:27;55.71;39.98;73.16;;
47923;Laerm;33688;44.354;9.228;2024-02-16T08:26:14;52.76;39.81;71.03;;
47923;Laerm;33688;44.354;9.228;2024-02-16T08:28:39;58.48;39.81;76.51;;
47923;Laerm;33688;44.354;9.228;2024-02-16T08:31:09;49.55;39.59;67.47;;
47923;Laerm;33688;44.354;9.228;2024-02-16T08:33:36;46.11;39.41;61.35;;
47923;Laerm;33688;44.354;9.228;2024-02-16T08:36:03;55.83;39.80;82.73;;
47923;Laerm;33688;44.354;9.228;2024-02-16T08:38:31;59.66;40.17;79.82;;
47923;Laerm;33688;44.354;9.228;2024-02-16T08:40:57;49.97;39.74;65.71;;
47923;Laerm;33688;44.354;9.228;2024-02-16T08:43:41;49.31;39.77;66.92;;
47923;Laerm;33688;44.354;9.228;2024-02-16T08:46:07;45.03;39.85;68.21;;
47923;Laerm;33688;44.354;9.228;2024-02-16T08:48:34;44.46;39.99;60.76;;
47923;Laerm;33688;44.354;9.228;2024-02-16T08:51:00;47.81;39.80;68.59;;
47923;Laerm;33688;44.354;9.228;2024-02-16T08:53:27;44.06;39.61;62.65;;
47923;Laerm;33688;44.354;9.228;2024-02-16T08:55:53;52.94;39.82;68.69;;
47923;Laerm;33688;44.354;9.228;2024-02-16T08:58:19;47.60;39.69;64.39;;
47923;Laerm;33688;44.354;9.228;2024-02-16T09:00:45;44.52;39.76;61.14;;
47923;Laerm;33688;44.354;9.228;2024-02-16T09:03:11;54.56;39.68;81.20;;
47923;Laerm;33688;44.354;9.228;2024-02-16T09:05:42;46.19;39.73;65.82;;
47923;Laerm;33688;44.354;9.228;2024-02-16T09:08:09;47.10;40.04;70.63;;
47923;Laerm;33688;44.354;9.228;2024-02-16T09:10:36;55.47;39.65;79.92;;
47923;Laerm;33688;44.354;9.228;2024-02-16T09:13:02;44.02;39.89;60.74;;
47923;Laerm;33688;44.354;9.228;2024-02-16T09:15:28;41.75;40.12;52.16;;
47923;Laerm;33688;44.354;9.228;2024-02-16T09:17:54;43.03;39.97;60.53;;
47923;Laerm;33688;44.354;9.228;2024-02-16T09:20:20;46.57;40.09;61.90;;
47923;Laerm;33688;44.354;9.228;2024-02-16T09:22:49;50.29;40.24;70.57;;
47923;Laerm;33688;44.354;9.228;2024-02-16T09:25:15;52.32;40.18;70.82;;
47923;Laerm;33688;44.354;9.228;2024-02-16T09:27:42;51.10;40.18;74.62;;
47923;Laerm;33688;44.354;9.228;2024-02-16T09:30:12;48.04;39.98;64.53;;
47923;Laerm;33688;44.354;9.228;2024-02-16T09:32:41;46.18;39.86;62.94;;
47923;Laerm;33688;44.354;9.228;2024-02-16T09:35:08;49.59;39.97;64.92;;
47923;Laerm;33688;44.354;9.228;2024-02-16T09:37:36;48.66;40.15;61.66;;
47923;Laerm;33688;44.354;9.228;2024-02-16T09:40:05;57.15;40.12;81.18;;
47923;Laerm;33688;44.354;9.228;2024-02-16T09:42:32;50.60;40.03;74.03;;
47923;Laerm;33688;44.354;9.228;2024-02-16T09:45:00;50.92;39.97;76.33;;
47923;Laerm;33688;44.354;9.228;2024-02-16T09:47:29;50.52;40.08;74.28;;
47923;Laerm;33688;44.354;9.228;2024-02-16T09:49:59;65.16;40.25;93.82;;
47923;Laerm;33688;44.354;9.228;2024-02-16T09:52:26;46.79;40.04;65.29;;
47923;Laerm;33688;44.354;9.228;2024-02-16T09:54:52;49.82;39.99;67.49;;
47923;Laerm;33688;44.354;9.228;2024-02-16T09:57:18;50.59;40.12;66.16;;
47923;Laerm;33688;44.354;9.228;2024-02-16T09:59:48;45.48;39.97;58.76;;
47923;Laerm;33688;44.354;9.228;2024-02-16T10:02:14;44.93;39.97;63.52;;
47923;Laerm;33688;44.354;9.228;2024-02-16T10:04:43;42.50;39.71;55.15;;
47923;Laerm;33688;44.354;9.228;2024-02-16T10:07:10;45.83;39.86;60.13;;
47923;Laerm;33688;44.354;9.228;2024-02-16T10:09:36;48.16;39.95;67.22;;
47923;Laerm;33688;44.354;9.228;2024-02-16T10:12:08;48.61;39.78;65.63;;
47923;Laerm;33688;44.354;9.228;2024-02-16T10:14:33;46.88;39.83;61.76;;
47923;Laerm;33688;44.354;9.228;2024-02-16T10:17:04;46.89;39.84;64.22;;
47923;Laerm;33688;44.354;9.228;2024-02-16T10:19:31;44.76;39.60;63.59;;
47923;Laerm;33688;44.354;9.228;2024-02-16T10:22:13;58.67;40.00;77.40;;
47923;Laerm;33688;44.354;9.228;2024-02-16T10:24:39;48.03;39.95;66.82;;
47923;Laerm;33688;44.354;9.228;2024-02-16T10:27:05;43.77;39.91;60.64;;
47923;Laerm;33688;44.354;9.228;2024-02-16T10:29:37;45.54;40.00;62.48;;
47923;Laerm;33688;44.354;9.228;2024-02-16T10:32:06;43.86;39.82;56.04;;
47923;Laerm;33688;44.354;9.228;2024-02-16T10:34:33;50.62;39.41;71.38;;
47923;Laerm;33688;44.354;9.228;2024-02-16T10:37:01;43.22;39.58;58.02;;
47923;Laerm;33688;44.354;9.228;2024-02-16T10:39:27;64.18;39.72;86.19;;
47923;Laerm;33688;44.354;9.228;2024-02-16T10:41:54;60.18;39.94;73.48;;
47923;Laerm;33688;44.354;9.228;2024-02-16T10:44:23;46.03;39.58;61.34;;
47923;Laerm;33688;44.354;9.228;2024-02-16T10:46:49;54.21;39.47;68.88;;
47923;Laerm;33688;44.354;9.228;2024-02-16T10:49:18;57.80;39.82;76.79;;
47923;Laerm;33688;44.354;9.228;2024-02-16T10:51:52;49.34;39.57;70.60;;
47923;Laerm;33688;44.354;9.228;2024-02-16T10:54:25;48.22;39.89;67.29;;
47923;Laerm;33688;44.354;9.228;2024-02-16T10:56:55;47.47;39.63;65.73;;
47923;Laerm;33688;44.354;9.228;2024-02-16T10:59:23;45.46;39.94;63.38;;
47923;Laerm;33688;44.354;9.228;2024-02-16T11:02:01;52.71;39.90;77.89;;
47923;Laerm;33688;44.354;9.228;2024-02-16T11:04:36;54.13;39.54;81.24;;
47923;Laerm;33688;44.354;9.228;2024-02-16T11:07:17;48.23;39.73;68.63;;
47923;Laerm;33688;44.354;9.228;2024-02-16T11:09:44;46.63;39.74;67.08;;
47923;Laerm;33688;44.354;9.228;2024-02-16T11:12:13;46.00;39.56;63.74;;
47923;Laerm;33688;44.354;9.228;2024-02-16T11:14:45;43.60;39.49;61.66;;
47923;Laerm;33688;44.354;9.228;2024-02-16T11:17:14;48.04;39.57;64.32;;
47923;Laerm;33688;44.354;9.228;2024-02-16T11:19:45;47.47;39.71;65.68;;
47923;Laerm;33688;44.354;9.228;2024-02-16T11:22:20;47.05;39.61;66.37;;
47923;Laerm;33688;44.354;9.228;2024-02-16T11:24:53;50.62;39.78;68.33;;
47923;Laerm;33688;44.354;9.228;2024-02-16T11:27:22;46.90;39.83;68.02;;
47923;Laerm;33688;44.354;9.228;2024-02-16T11:29:52;44.97;39.44;60.70;;
47923;Laerm;33688;44.354;9.228;2024-02-16T11:32:56;43.64;39.45;63.45;;
47923;Laerm;33688;44.354;9.228;2024-02-16T11:35:22;45.64;39.67;63.28;;
47923;Laerm;33688;44.354;9.228;2024-02-16T11:37:50;45.30;39.60;69.34;;
47923;Laerm;33688;44.354;9.228;2024-02-16T11:40:17;48.38;39.82;74.05;;
47923;Laerm;33688;44.354;9.228;2024-02-16T11:42:43;46.86;39.81;60.95;;
47923;Laerm;33688;44.354;9.228;2024-02-16T11:45:12;49.15;39.79;74.34;;
47923;Laerm;33688;44.354;9.228;2024-02-16T11:47:38;42.07;39.65;59.05;;
47923;Laerm;33688;44.354;9.228;2024-02-16T11:50:09;42.90;39.59;57.75;;
47923;Laerm;33688;44.354;9.228;2024-02-16T11:52:39;40.69;39.82;47.38;;
47923;Laerm;33688;44.354;9.228;2024-02-16T11:55:10;41.08;39.64;52.17;;
47923;Laerm;33688;44.354;9.228;2024-02-16T11:57:55;40.93;39.53;53.20;;
47923;Laerm;33688;44.354;9.228;2024-02-16T12:00:22;42.19;39.52;56.63;;
47923;Laerm;33688;44.354;9.228;2024-02-16T12:02:59;45.26;39.55;60.84;;
47923;Laerm;33688;44.354;9.228;2024-02-16T12:05:26;44.73;39.56;63.92;;
47923;Laerm;33688;44.354;9.228;2024-02-16T12:07:52;40.42;39.38;43.05;;
47923;Laerm;33688;44.354;9.228;2024-02-16T12:10:17;44.96;39.42;73.06;;
47923;Laerm;33688;44.354;9.228;2024-02-16T12:12:43;40.41;39.36;44.30;;
47923;Laerm;33688;44.354;9.228;2024-02-16T12:15:10;40.90;39.39;47.56;;
47923;Laerm;33688;44.354;9.228;2024-02-16T12:17:38;40.32;39.26;47.31;;
47923;Laerm;33688;44.354;9.228;2024-02-16T12:20:12;40.41;39.04;44.36;;
47923;Laerm;33688;44.354;9.228;2024-02-16T12:22:40;40.79;39.33;57.11;;
47923;Laerm;33688;44.354;9.228;2024-02-16T12:25:06;45.00;39.56;59.95;;
47923;Laerm;33688;44.354;9.228;2024-02-16T12:27:32;45.84;39.76;54.58;;
47923;Laerm;33688;44.354;9.228;2024-02-16T12:29:59;42.46;39.78;58.31;;
47923;Laerm;33688;44.354;9.228;2024-02-16T12:32:25;41.98;39.28;57.86;;
47923;Laerm;33688;44.354;9.228;2024-02-16T12:34:51;40.42;39.45;43.54;;
47923;Laerm;33688;44.354;9.228;2024-02-16T12:37:17;40.67;39.40;47.60;;
47923;Laerm;33688;44.354;9.228;2024-02-16T12:39:44;41.04;39.42;49.72;;
47923;Laerm;33688;44.354;9.228;2024-02-16T12:42:11;40.98;39.77;56.02;;
47923;Laerm;33688;44.354;9.228;2024-02-16T12:44:39;40.66;39.19;43.50;;
47923;Laerm;33688;44.354;9.228;2024-02-16T12:47:05;40.81;39.60;46.50;;
47923;Laerm;33688;44.354;9.228;2024-02-16T12:49:31;40.65;39.49;43.87;;
47923;Laerm;33688;44.354;9.228;2024-02-16T12:51:57;44.38;39.52;65.44;;
47923;Laerm;33688;44.354;9.228;2024-02-16T12:54:24;45.19;39.62;64.97;;
47923;Laerm;33688;44.354;9.228;2024-02-16T12:56:50;43.30;39.71;58.87;;
47923;Laerm;33688;44.354;9.228;2024-02-16T12:59:17;40.86;39.31;53.21;;
47923;Laerm;33688;44.354;9.228;2024-02-16T13:01:42;40.53;39.43;48.26;;
47923;Laerm;33688;44.354;9.228;2024-02-16T13:04:09;40.68;39.34;54.05;;
47923;Laerm;33688;44.354;9.228;2024-02-16T13:06:35;40.59;39.37;51.18;;
47923;Laerm;33688;44.354;9.228;2024-02-16T13:09:04;40.57;39.48;47.91;;
47923;Laerm;33688;44.354;9.228;2024-02-16T13:11:31;40.81;39.39;50.75;;
47923;Laerm;33688;44.354;9.228;2024-02-16T13:14:00;44.98;39.61;61.48;;
47923;Laerm;33688;44.354;9.228;2024-02-16T13:16:27;40.71;39.43;54.02;;
47923;Laerm;33688;44.354;9.228;2024-02-16T13:18:54;40.57;39.41;48.49;;
47923;Laerm;33688;44.354;9.228;2024-02-16T13:21:19;50.90;39.57;64.22;;
47923;Laerm;33688;44.354;9.228;2024-02-16T13:23:46;52.05;39.63;64.68;;
47923;Laerm;33688;44.354;9.228;2024-02-16T13:26:12;45.53;39.59;59.35;;
47923;Laerm;33688;44.354;9.228;2024-02-16T13:28:38;54.34;39.86;70.26;;
47923;Laerm;33688;44.354;9.228;2024-02-16T13:31:04;58.75;40.23;74.29;;
47923;Laerm;33688;44.354;9.228;2024-02-16T13:33:31;51.27;39.96;65.56;;
47923;Laerm;33688;44.354;9.228;2024-02-16T13:35:57;54.65;39.92;71.59;;
47923;Laerm;33688;44.354;9.228;2024-02-16T13:38:25;46.62;39.87;64.14;;
47923;Laerm;33688;44.354;9.228;2024-02-16T13:40:51;46.38;39.78;63.03;;
47923;Laerm;33688;44.354;9.228;2024-02-16T13:43:17;52.34;39.89;76.88;;
47923;Laerm;33688;44.354;9.228;2024-02-16T13:45:54;49.81;39.80;74.31;;
47923;Laerm;33688;44.354;9.228;2024-02-16T13:48:21;51.51;39.99;65.09;;